createdAt,value
2023-01-19T00:04:59.682Z,94.15
2023-01-19T00:10:03.501Z,93.99
2023-01-19T00:15:08.453Z,93.84
2023-01-19T00:20:12.598Z,93.86
2023-01-19T00:25:15.789Z,93.90
2023-01-19T00:30:19.004Z,93.92
2023-01-19T00:35:22.417Z,93.84
2023-01-19T00:40:26.035Z,93.90
2023-01-19T00:45:29.359Z,93.96
2023-01-19T00:50:33.776Z,94.08
2023-01-19T00:55:36.877Z,94.16
2023-01-19T01:00:40.191Z,94.10
2023-01-19T01:05:43.400Z,94.09
2023-01-19T01:10:46.809Z,94.06
2023-01-19T01:15:51.676Z,94.02
2023-01-19T01:21:05.009Z,94.05
2023-01-19T01:26:08.225Z,94.08
2023-01-19T01:31:11.290Z,93.96
2023-01-19T01:36:14.579Z,93.83
2023-01-19T01:41:17.942Z,93.87
2023-01-19T01:46:27.022Z,93.92
2023-01-19T01:51:37.765Z,93.92
2023-01-19T01:56:44.658Z,93.97
2023-01-19T02:02:06.535Z,94.08
2023-01-19T02:07:36.350Z,94.17
2023-01-19T02:12:58.895Z,94.28
2023-01-19T02:18:02.520Z,94.32
2023-01-19T02:23:13.095Z,94.33
2023-01-19T02:28:18.059Z,94.35
2023-01-19T02:33:21.253Z,94.35
2023-01-19T02:38:27.232Z,94.34
2023-01-19T02:43:32.339Z,94.30
2023-01-19T02:48:36.308Z,94.30
2023-01-19T02:54:13.922Z,94.27
2023-01-19T02:59:41.807Z,94.27
2023-01-19T03:04:54.639Z,94.27
2023-01-19T03:10:09.927Z,94.26
2023-01-19T03:15:27.697Z,94.24
2023-01-19T03:20:31.295Z,94.23
2023-01-19T03:25:40.551Z,94.27
2023-01-19T03:30:48.210Z,94.32
2023-01-19T03:35:57.310Z,94.31
2023-01-19T03:41:11.265Z,94.30
2023-01-19T03:46:17.726Z,94.27
2023-01-19T03:51:22.391Z,94.26
2023-01-19T03:56:26.376Z,94.25
2023-01-19T04:01:29.709Z,94.25
2023-01-19T04:06:33.157Z,94.21
2023-01-19T04:11:36.351Z,94.18
2023-01-19T04:16:39.963Z,94.13
2023-01-19T04:21:43.274Z,94.12
2023-01-19T04:26:46.891Z,94.10
2023-01-19T04:31:49.890Z,94.13
2023-01-19T04:36:53.204Z,94.21
2023-01-19T04:41:57.779Z,94.36
2023-01-19T04:47:01.768Z,94.45
2023-01-19T04:52:05.316Z,94.50
2023-01-19T04:57:08.492Z,94.51
2023-01-19T05:02:12.081Z,94.45
2023-01-19T05:07:15.317Z,94.39
2023-01-19T05:12:18.316Z,94.35
2023-01-19T05:17:21.425Z,94.25
2023-01-19T05:22:24.942Z,94.24
2023-01-19T05:27:28.358Z,94.26
2023-01-19T05:32:31.578Z,94.27
2023-01-19T05:37:34.667Z,94.27
2023-01-19T05:42:37.979Z,94.09
2023-01-19T05:47:40.988Z,94.11
2023-01-19T05:52:44.086Z,94.18
2023-01-19T05:57:47.499Z,94.16
2023-01-19T06:02:51.027Z,94.20
2023-01-19T06:07:56.676Z,94.45
2023-01-19T06:13:00.037Z,94.65
2023-01-19T06:18:03.195Z,94.73
2023-01-19T06:23:06.817Z,94.69
2023-01-19T06:28:09.944Z,94.76
2023-01-19T06:33:13.132Z,94.82
2023-01-19T06:38:18.767Z,94.86
2023-01-19T06:43:22.305Z,94.97
2023-01-19T06:48:25.419Z,95.18
2023-01-19T06:53:30.423Z,95.32
2023-01-19T06:58:35.010Z,95.55
2023-01-19T07:03:38.816Z,95.70
2023-01-19T07:08:41.825Z,95.79
2023-01-19T07:13:46.966Z,95.85
2023-01-19T07:18:50.598Z,95.90
2023-01-19T07:23:54.028Z,95.93
2023-01-19T07:28:57.124Z,95.92
2023-01-19T07:34:00.639Z,95.91
2023-01-19T07:39:03.738Z,95.91
2023-01-19T07:44:06.847Z,95.91
2023-01-19T07:49:09.957Z,95.90
2023-01-19T07:54:13.159Z,95.89
2023-01-19T07:59:16.162Z,95.91
2023-01-19T08:04:19.320Z,95.94
2023-01-19T08:09:23.092Z,95.98
2023-01-19T08:14:26.316Z,96.00
2023-01-19T08:19:30.028Z,96.02
2023-01-19T08:24:32.945Z,96.03
2023-01-19T08:29:36.344Z,96.03
2023-01-19T08:34:39.348Z,96.02
2023-01-19T08:39:42.446Z,96.01
2023-01-19T08:44:57.240Z,96.02
2023-01-19T08:50:01.054Z,96.05
2023-01-19T08:55:05.329Z,96.06
2023-01-19T09:00:10.650Z,96.06
2023-01-19T09:05:14.090Z,96.01
2023-01-19T09:10:18.072Z,95.92
2023-01-19T09:15:21.910Z,95.72
2023-01-19T09:20:25.101Z,95.53
2023-01-19T09:25:28.540Z,95.46
2023-01-19T09:30:33.531Z,95.46
2023-01-19T09:35:37.284Z,95.47
2023-01-19T09:40:45.311Z,95.43
2023-01-19T09:46:12.344Z,95.33
2023-01-19T09:51:26.442Z,95.15
2023-01-19T09:56:29.957Z,94.89
2023-01-19T10:01:35.047Z,94.52
2023-01-19T10:06:38.823Z,94.30
2023-01-19T10:11:53.153Z,93.83
2023-01-19T10:17:15.059Z,93.50
2023-01-19T10:22:21.533Z,93.62
2023-01-19T10:27:27.614Z,93.02
2023-01-19T10:32:33.473Z,92.48
2023-01-19T10:37:42.184Z,92.31
2023-01-19T10:42:45.313Z,92.25
2023-01-19T10:47:49.245Z,92.41
2023-01-19T10:52:54.201Z,92.61
2023-01-19T10:57:58.343Z,92.58
2023-01-19T11:03:01.759Z,92.74
2023-01-19T11:08:22.131Z,92.80
2023-01-19T11:13:25.751Z,92.59
2023-01-19T11:18:30.906Z,92.35
2023-01-19T11:23:43.071Z,92.17
2023-01-19T11:28:47.977Z,91.69
2023-01-19T11:33:52.304Z,91.47
2023-01-19T11:38:57.362Z,91.35
2023-01-19T11:44:03.333Z,91.29
2023-01-19T11:49:08.893Z,91.39
2023-01-19T11:54:24.387Z,91.44
2023-01-19T11:59:27.695Z,91.39
2023-01-19T12:04:33.872Z,91.41
2023-01-19T12:09:43.227Z,91.35
2023-01-19T12:15:07.650Z,91.33
2023-01-19T12:20:19.231Z,91.39
2023-01-19T12:25:41.083Z,91.34
2023-01-19T12:30:44.555Z,91.37
2023-01-19T12:36:02.491Z,91.18
2023-01-19T12:41:26.183Z,91.08
2023-01-19T12:46:30.926Z,90.91
2023-01-19T12:51:34.191Z,91.10
2023-01-19T12:56:38.734Z,90.93
2023-01-19T13:01:41.962Z,90.70
2023-01-19T13:06:48.547Z,90.71
2023-01-19T13:12:14.960Z,90.75
2023-01-19T13:17:30.988Z,90.77
2023-01-19T13:22:49.771Z,90.73
2023-01-19T13:27:52.856Z,90.73
2023-01-19T13:32:57.804Z,90.83
2023-01-19T13:38:01.545Z,90.72
2023-01-19T13:43:06.883Z,90.59
2023-01-19T13:48:15.209Z,90.66
2023-01-19T13:53:19.443Z,90.83
2023-01-19T13:58:23.677Z,90.97
2023-01-19T14:03:27.063Z,91.24
2023-01-19T14:08:33.061Z,91.47
2023-01-19T14:13:43.354Z,91.70
2023-01-19T14:18:46.849Z,91.94
2023-01-19T14:24:09.235Z,92.22
2023-01-19T14:29:12.213Z,92.36
2023-01-19T14:34:35.279Z,92.44
2023-01-19T14:39:38.282Z,92.46
2023-01-19T14:44:41.592Z,92.54
2023-01-19T14:49:47.026Z,92.54
2023-01-19T14:54:50.873Z,92.62
2023-01-19T14:59:54.082Z,92.72
2023-01-19T15:04:58.214Z,92.93
2023-01-19T15:10:04.398Z,93.13
2023-01-19T15:15:14.015Z,93.30
2023-01-19T15:20:19.964Z,93.47
2023-01-19T15:25:26.576Z,93.66
2023-01-19T15:30:33.861Z,93.78
2023-01-19T15:35:37.044Z,93.75
2023-01-19T15:40:40.432Z,93.78
2023-01-19T15:46:03.878Z,93.78
2023-01-19T15:51:11.750Z,93.90
2023-01-19T15:56:16.384Z,93.97
2023-01-19T16:01:21.505Z,94.09
2023-01-19T16:06:24.833Z,94.21
2023-01-19T16:11:30.860Z,94.30
2023-01-19T16:16:34.275Z,94.37
2023-01-19T16:21:38.799Z,94.39
2023-01-19T16:26:42.073Z,94.47
2023-01-19T16:31:45.830Z,94.57
2023-01-19T16:36:49.200Z,94.62
2023-01-19T16:41:52.518Z,94.61
2023-01-19T16:46:56.081Z,94.54
2023-01-19T16:52:00.359Z,94.47
2023-01-19T16:57:04.179Z,94.49
2023-01-19T17:02:08.205Z,94.54
2023-01-19T17:07:12.163Z,94.63
2023-01-19T17:12:15.648Z,94.70
2023-01-19T17:17:18.961Z,94.77
2023-01-19T17:22:22.369Z,94.83
2023-01-19T17:27:26.092Z,94.88
2023-01-19T17:32:30.835Z,94.93
2023-01-19T17:37:34.966Z,94.98
2023-01-19T17:42:42.175Z,95.04
2023-01-19T17:47:48.548Z,95.08
2023-01-19T17:52:53.399Z,95.10
2023-01-19T17:57:57.770Z,95.11
2023-01-19T18:03:03.001Z,95.14
2023-01-19T18:08:06.303Z,95.11
2023-01-19T18:13:09.713Z,95.13
2023-01-19T18:18:12.914Z,95.14
2023-01-19T18:23:16.440Z,95.12
2023-01-19T18:28:19.740Z,95.10
2023-01-19T18:33:23.253Z,95.06
2023-01-19T18:38:26.673Z,95.04
2023-01-19T18:43:29.876Z,95.00
2023-01-19T18:48:33.292Z,95.00
2023-01-19T18:53:37.015Z,95.01
2023-01-19T18:58:40.626Z,95.01
2023-01-19T19:03:44.551Z,94.99
2023-01-19T19:08:48.579Z,94.97
2023-01-19T19:13:56.301Z,94.97
2023-01-19T19:18:59.610Z,94.94
2023-01-19T19:24:03.440Z,94.91
2023-01-19T19:29:06.636Z,94.90
2023-01-19T19:34:12.928Z,94.89
2023-01-19T19:39:16.121Z,94.86
2023-01-19T19:44:19.432Z,94.75
2023-01-19T19:49:23.868Z,94.65
2023-01-19T19:54:26.799Z,94.63
2023-01-19T19:59:30.291Z,94.65
2023-01-19T20:04:34.232Z,94.65
2023-01-19T20:09:38.341Z,94.62
2023-01-19T20:14:41.653Z,94.49
2023-01-19T20:19:46.806Z,94.25
2023-01-19T20:24:51.750Z,94.07
2023-01-19T20:29:58.581Z,93.96
2023-01-19T20:35:02.063Z,93.85
2023-01-19T20:40:13.472Z,93.74
2023-01-19T20:45:17.797Z,93.65
2023-01-19T20:50:22.642Z,93.57
2023-01-19T20:55:26.059Z,93.51
2023-01-19T21:00:29.371Z,93.41
2023-01-19T21:05:32.783Z,93.42
2023-01-19T21:10:36.188Z,93.48
2023-01-19T21:15:39.247Z,93.55
2023-01-19T21:20:42.605Z,93.59
2023-01-19T21:25:49.709Z,93.68
2023-01-19T21:30:53.876Z,93.73
2023-01-19T21:35:57.539Z,93.62
2023-01-19T21:41:05.293Z,93.57
2023-01-19T21:46:18.924Z,93.59
2023-01-19T21:51:22.337Z,93.63
2023-01-19T21:56:25.861Z,93.66
2023-01-19T22:01:29.551Z,93.70
2023-01-19T22:06:32.790Z,93.72
2023-01-19T22:11:36.199Z,93.76
2023-01-19T22:16:39.450Z,93.79
2023-01-19T22:21:42.515Z,93.83
2023-01-19T22:26:45.612Z,93.86
2023-01-19T22:31:52.064Z,93.89
2023-01-19T22:36:55.319Z,93.91
2023-01-19T22:41:58.629Z,93.92
2023-01-19T22:47:01.822Z,93.94
2023-01-19T22:52:05.134Z,93.99
2023-01-19T22:57:11.517Z,94.06
2023-01-19T23:02:14.903Z,94.13
2023-01-19T23:07:17.931Z,94.16
2023-01-19T23:12:20.873Z,94.17
2023-01-19T23:17:23.756Z,94.18
2023-01-19T23:22:26.839Z,94.18
2023-01-19T23:27:29.724Z,94.18
2023-01-19T23:32:33.251Z,94.18
2023-01-19T23:37:36.155Z,94.17
2023-01-19T23:42:39.264Z,94.17
2023-01-19T23:47:43.595Z,94.16
2023-01-19T23:52:46.699Z,94.15
2023-01-19T23:57:49.599Z,94.14
